METAR / TAF

Die METAR- und TAF-Liste ist aus technischen Gründen (Verfügbarkeit, Update-Zyklen) nicht für ein Meteo-Briefing gedacht. Benutzen Sie stattdessen skybriefing der Skyguide  oder das TAMSI (MeteoSchweiz-eigene Meteo Selfbriefing-Plattform für Firmen aus der Aviatik; Anfragen über das

Kontaktformular

METAR Schweiz

METAR     LSZH 290420Z 23006KT 190V250 9999 FEW009 SCT040 BKN080
               15/12 Q1001 NOSIG=
METAR     LSZH 290450Z 20005KT 9999 FEW009 SCT040 BKN085 15/12
               Q1001 NOSIG=
METAR     LSGG 290420Z 27004KT 9999 FEW020 BKN090 14/12 Q1002 NOSIG=
METAR     LSGG 290450Z 26003KT 9999 FEW020 SCT060 14/12 Q1002 NOSIG=
METAR     LFSB 290500Z VRB02KT 9999 SCT050 SCT080 BKN220 14/13
               Q1001 NOSIG=
METAR     LSZB 290420Z VRB03KT 9999 FEW060 12/11 Q1002 NOSIG=
METAR     LSZB 290450Z VRB02KT 9999 SCT140 13/11 Q1002 NOSIG=
METAR     LSZA 290420Z VRB01KT 9999 FEW008 SCT030 BKN110 14/14
               Q1001 NOSIG=
METAR     LSZA 290450Z 01003KT 9999 FEW008 SCT030 BKN110 14/13
               Q1001 NOSIG=
METAR     LSZG 290420Z AUTO 21003KT 9999 FEW020 OVC050 14/12 Q1002=
METAR     LSZG 290450Z AUTO 23006KT 9999 NSC 14/12 Q1002=
METAR     LSZR 290420Z VRB02KT 9999 VCSH SCT050 BKN100 15/12 Q1001
               NOSIG RMK A=
METAR     LSZR 290450Z VRB02KT 9999 SCT045 BKN100 15/13 Q1001 NOSIG
               RMK A=
METAR     LSGS 290420Z AUTO 00000KT 9999 NCD 15/11 Q1002=
METAR     LSGS 290450Z 00000KT 9999 FEW078 SCT086 BKN120 15/11
               Q1002=
METAR     LSGC 290420Z AUTO 26005KT 220V290 9999 SCT018 BKN050
               10/09 Q1003=
METAR     LSGC 290450Z AUTO 25004KT 9999 SCT030 SCT180 10/09 Q1003=
METAR     LSZC 290420Z AUTO VRB03KT 9999 FEW013 OVC070 14/13 Q1002=
METAR     LSZC 290450Z AUTO 28003KT 9999 FEW013 SCT070 OVC090 14/13
               Q1002=
METAR RRA LSZL 290450Z AUTO 00000KT 9999NDV SCT120 15/14 Q1001 RMK=
METAR     LSZL 290420Z NIL=
METAR     LSZS 290420Z AUTO 09001KT 9999 -RA OVC005 07/06 Q1004=
METAR     LSZS 290450Z AUTO 05001KT 9999 -DZ OVC050 OVC070 07/06
               Q1004=
METAR     LSMA 290420Z NIL=
METAR     LSMA 290450Z NIL=
METAR     LSMD 290420Z NIL=
METAR     LSMD 290450Z 28003KT 250V330 9999 FEW025 SCT068 BKN087
               15/12 Q1001 RMK BLU=
METAR     LSME 290420Z NIL=
METAR     LSME 290450Z VRB02KT 9999 FEW040 SCT075 15/14 Q1002 RMK
               BLU+=
METAR     LSMM 290420Z NIL=
METAR     LSMM 290450Z VRB02KT 9999 FEW012 BKN052 13/13 Q1002 RMK
               BLU=
METAR     LSMP 290420Z NIL=
METAR     LSMP 290450Z 23004KT 190V260 9999 FEW054 BKN063 15/10
               Q1002 RMK BLU=
METAR     LSMS 290420Z AUTO 00000KT 9999 NCD 15/11 Q1002=
METAR     LSMS 290450Z 00000KT 9999 FEW078 SCT086 BKN120 15/11
               Q1002 RMK BLU=
Aktualisiert am Donnerstag, 29. Juni 2017, 07:23 Uhr

TAF Schweiz

TAF     LSZH 290225Z 2903/3009 23008KT 9999 FEW018 SCT050 BKN100
             TX21/2915Z TN14/2904Z TN11/3004Z PROB30 TEMPO
             2903/2906 SHRA BECMG 2909/2912 24012G25KT TEMPO
             2910/2918 25015G30KT SHRA SCT045TCU PROB30 TEMPO
             2911/2916 4000 TSRA FEW040CB BECMG 2918/2921 VRB03KT
             BECMG 3005/3008 28010KT CAVOK=
TAF     LSGG 290225Z 2903/3009 23010KT 9999 FEW040 SCT050 BKN090
             TX20/2915Z TN14/2904Z TN11/3004Z TEMPO 2903/2908
             SCT040 SCT070 BECMG 2908/2910 23015G25KT TEMPO
             2908/2919 SHRA PROB30 2909/2919 4500 TSRA FEW040CB
             BKN050 BECMG 2918/2921 23008KT BECMG 2921/3000 FEW050
             SCT070=
TAF     LFSB 282300Z 2900/2924 VRB03KT CAVOK PROB30 TEMPO 2900/2905
             -SHRA BECMG 2907/2910 FEW045CB BKN050 PROB40 TEMPO
             2910/2919 26015G35KT 4000 TSRA BKN050CB=
TAF     LSGS 290225Z 2903/2912 VRB03KT 9999 BKN070 TEMPO 2906/2910
             SCT070 BECMG 2910/2912 25010KT=
TAF     LSZA 290225Z 2903/2912 VRB03KT 9999 FEW007 BKN090 OVC110
             PROB40 TEMPO 2903/2908 SHRA PROB40 TEMPO 2910/2912
             22010KT SHRA SCT045TCU PROB30 TEMPO 2910/2912
             22012G25KT TSRA SCT045CB=
TAF     LSZB 290225Z 2903/2912 23006KT 9999 SCT050 BKN070 BECMG
             2908/2911 25012G25KT PROB40 TEMPO 2909/2912
             25015G30KT SHRA SCT040TCU=
TAF     LSZL 290225Z 2903/2912 08005KT 9999 FEW015 SCT120 BKN140
             BECMG 2910/2912 FEW040TCU=
TAF     LSZR 290225Z 2903/2912 VRB03KT 9999 -RA OVC050 PROB40 TEMPO
             2903/2907 SHRA PROB30 TEMPO 2910/2912 28012G25KT SHRA
             SCT040TCU=
TAF     LSMA 281625Z 2817/2923 22008KT 7000 -SHRA SCT034TCU SCT059
             BKN075 TEMPO 2817/2820 SHRA SCT050TCU PROB30 TEMPO
             2817/2820 25012G25KT 4000 TSRA FEW030CB BKN040 TEMPO
             2820/2906 RA TEMPO 2910/2916 23015G25KT TEMPO
             2911/2923 SHRA SCT050TCU PROB30 TEMPO 2912/2920
             23012G25KT 4000 TSRA FEW030CB BKN040=
TAF     LSMD 281625Z 2817/2923 26006KT 9999 -SHRA FEW035 SCT060
             TEMPO 2817/2820 SHRA SCT050TCU PROB30 TEMPO 2817/2820
             25012G25KT 4000 TSRA FEW030CB BKN040 TEMPO 2820/2906
             RA TEMPO 2910/2918 25015G30KT TEMPO 2914/2923 SHRA
             SCT050TCU PROB30 TEMPO 2914/2920 25012G25KT 4000 TSRA
             FEW030CB BKN040=
TAF     LSME 281625Z 2817/2923 14005KT 9999 -SHRA SCT025TCU BKN035
             TEMPO 2817/2820 SHRA SCT050TCU PROB30 TEMPO 2817/2820
             25012G25KT 4000 TSRA FEW030CB BKN040 TEMPO 2820/2906
             RA TEMPO 2910/2918 25015G30KT TEMPO 2914/2923 SHRA
             SCT050TCU PROB30 TEMPO 2914/2920 25012G25KT 4000 TSRA
             FEW030CB BKN040=
TAF RRA LSMM 281625Z 2817/2923 22005KT 9999 -SHRA SCT032 BKN065
             OVC080 TEMPO 2817/2824 SHRA SCT050TCU PROB30 TEMPO
             2817/2820 27012G25KT 4000 TSRA FEW030CB BKN040 TEMPO
             2900/2906 RA TEMPO 2910/2921 SHRA SCT050TCU PROB30
             TEMPO 2912/2917 27012G25KT 4000 TSRA FEW030CB BKN040=
TAF     LSMP 281625Z 2817/2923 23010KT 9999 SCT050 BKN100 TEMPO
             2817/2903 SHRA BECMG 2909/2911 23015G25KT TEMPO
             2912/2918 SHRA BECMG 2919/2921 25008KT=
Aktualisiert am Donnerstag, 29. Juni 2017, 06:07 Uhr